sensor_id;sensor_type;location;lat;lon;timestamp;P1;durP1;ratioP1;P2;durP2;ratioP2
41456;SDS011;27197;51.752;5.220;2023-03-23T11:41:11;5.03;;;1.70;;
41456;SDS011;27197;51.752;5.220;2023-03-23T11:43:44;7.92;;;2.30;;
41456;SDS011;27197;51.752;5.220;2023-03-23T11:49:04;6.15;;;2.42;;
41456;SDS011;27197;51.752;5.220;2023-03-23T11:51:18;8.33;;;3.27;;
41456;SDS011;27197;51.752;5.220;2023-03-23T11:56:27;5.35;;;2.05;;
41456;SDS011;27197;51.752;5.220;2023-03-23T11:58:59;9.43;;;2.60;;
41456;SDS011;27197;51.752;5.220;2023-03-23T12:06:57;11.95;;;4.40;;
41456;SDS011;27197;51.752;5.220;2023-03-23T12:11:58;14.50;;;4.92;;
41456;SDS011;27197;51.752;5.220;2023-03-23T12:14:38;10.72;;;4.67;;
41456;SDS011;27197;51.752;5.220;2023-03-23T12:17:16;12.03;;;6.33;;
41456;SDS011;27197;51.752;5.220;2023-03-23T12:22:18;17.17;;;6.95;;
41456;SDS011;27197;51.752;5.220;2023-03-23T12:35:46;10.58;;;5.47;;
41456;SDS011;27197;51.752;5.220;2023-03-23T12:41:02;12.00;;;4.93;;
41456;SDS011;27197;51.752;5.220;2023-03-23T12:48:47;8.98;;;4.67;;
41456;SDS011;27197;51.752;5.220;2023-03-23T12:51:28;5.62;;;2.58;;
41456;SDS011;27197;51.752;5.220;2023-03-23T12:54:03;5.95;;;2.47;;
41456;SDS011;27197;51.752;5.220;2023-03-23T12:56:35;7.87;;;2.80;;
41456;SDS011;27197;51.752;5.220;2023-03-23T12:59:09;4.95;;;2.10;;
41456;SDS011;27197;51.752;5.220;2023-03-23T13:01:56;6.45;;;3.30;;
41456;SDS011;27197;51.752;5.220;2023-03-23T13:04:12;8.08;;;3.90;;
41456;SDS011;27197;51.752;5.220;2023-03-23T13:06:45;5.50;;;2.75;;
41456;SDS011;27197;51.752;5.220;2023-03-23T13:09:26;6.53;;;3.00;;
41456;SDS011;27197;51.752;5.220;2023-03-23T13:11:55;6.28;;;2.37;;
41456;SDS011;27197;51.752;5.220;2023-03-23T13:14:45;6.62;;;2.15;;
41456;SDS011;27197;51.752;5.220;2023-03-23T13:22:30;5.75;;;3.58;;
41456;SDS011;27197;51.752;5.220;2023-03-23T13:24:58;5.42;;;2.47;;
41456;SDS011;27197;51.752;5.220;2023-03-23T13:27:27;5.97;;;2.65;;
41456;SDS011;27197;51.752;5.220;2023-03-23T13:29:56;6.70;;;2.87;;
41456;SDS011;27197;51.752;5.220;2023-03-23T13:32:32;9.20;;;3.60;;
41456;SDS011;27197;51.752;5.220;2023-03-23T13:35:01;6.22;;;2.90;;
41456;SDS011;27197;51.752;5.220;2023-03-23T13:37:28;5.72;;;2.52;;
41456;SDS011;27197;51.752;5.220;2023-03-23T13:40:30;7.42;;;2.95;;
41456;SDS011;27197;51.752;5.220;2023-03-23T13:42:34;4.67;;;2.50;;
41456;SDS011;27197;51.752;5.220;2023-03-23T13:45:08;6.60;;;2.62;;
41456;SDS011;27197;51.752;5.220;2023-03-23T13:47:38;6.92;;;2.85;;
41456;SDS011;27197;51.752;5.220;2023-03-23T13:55:21;7.67;;;3.58;;
41456;SDS011;27197;51.752;5.220;2023-03-23T13:57:51;10.98;;;3.58;;
41456;SDS011;27197;51.752;5.220;2023-03-23T14:03:10;5.08;;;2.52;;
41456;SDS011;27197;51.752;5.220;2023-03-23T14:05:44;5.80;;;2.37;;
41456;SDS011;27197;51.752;5.220;2023-03-23T14:13:24;8.40;;;2.80;;
41456;SDS011;27197;51.752;5.220;2023-03-23T14:16:03;4.95;;;1.67;;
41456;SDS011;27197;51.752;5.220;2023-03-23T14:18:38;6.17;;;2.60;;
41456;SDS011;27197;51.752;5.220;2023-03-23T14:21:21;7.50;;;3.25;;
41456;SDS011;27197;51.752;5.220;2023-03-23T14:23:47;7.55;;;3.30;;
41456;SDS011;27197;51.752;5.220;2023-03-23T14:26:17;6.87;;;2.58;;
41456;SDS011;27197;51.752;5.220;2023-03-23T14:28:53;5.40;;;2.45;;
41456;SDS011;27197;51.752;5.220;2023-03-23T14:33:55;5.58;;;1.52;;
41456;SDS011;27197;51.752;5.220;2023-03-23T14:36:28;7.58;;;2.00;;
41456;SDS011;27197;51.752;5.220;2023-03-23T14:39:02;5.87;;;2.30;;
41456;SDS011;27197;51.752;5.220;2023-03-23T14:41:30;6.97;;;2.35;;
41456;SDS011;27197;51.752;5.220;2023-03-23T14:44:01;7.20;;;2.30;;
41456;SDS011;27197;51.752;5.220;2023-03-23T14:46:30;5.73;;;2.13;;
41456;SDS011;27197;51.752;5.220;2023-03-23T14:49:00;7.95;;;2.40;;
41456;SDS011;27197;51.752;5.220;2023-03-23T14:51:29;7.45;;;2.35;;
41456;SDS011;27197;51.752;5.220;2023-03-23T14:53:59;6.33;;;2.22;;
41456;SDS011;27197;51.752;5.220;2023-03-23T14:56:34;6.45;;;2.50;;
41456;SDS011;27197;51.752;5.220;2023-03-23T14:59:05;5.12;;;2.20;;
41456;SDS011;27197;51.752;5.220;2023-03-23T15:01:34;8.13;;;2.50;;
41456;SDS011;27197;51.752;5.220;2023-03-23T15:04:08;4.83;;;2.12;;
41456;SDS011;27197;51.752;5.220;2023-03-23T15:06:39;6.58;;;2.45;;
41456;SDS011;27197;51.752;5.220;2023-03-23T15:09:11;6.87;;;1.98;;
41456;SDS011;27197;51.752;5.220;2023-03-23T15:11:40;8.05;;;2.22;;
41456;SDS011;27197;51.752;5.220;2023-03-23T15:16:47;7.22;;;2.02;;
41456;SDS011;27197;51.752;5.220;2023-03-23T15:19:17;5.40;;;2.27;;
41456;SDS011;27197;51.752;5.220;2023-03-23T15:26:50;5.53;;;2.50;;
41456;SDS011;27197;51.752;5.220;2023-03-23T15:29:19;4.95;;;1.90;;
41456;SDS011;27197;51.752;5.220;2023-03-23T15:31:52;6.53;;;2.30;;
41456;SDS011;27197;51.752;5.220;2023-03-23T15:34:25;9.55;;;2.50;;
41456;SDS011;27197;51.752;5.220;2023-03-23T15:36:57;5.33;;;2.15;;
41456;SDS011;27197;51.752;5.220;2023-03-23T15:39:25;5.37;;;1.80;;
41456;SDS011;27197;51.752;5.220;2023-03-23T15:41:55;5.12;;;2.30;;
41456;SDS011;27197;51.752;5.220;2023-03-23T15:44:31;6.40;;;2.00;;
41456;SDS011;27197;51.752;5.220;2023-03-23T15:47:12;4.90;;;1.85;;
41456;SDS011;27197;51.752;5.220;2023-03-23T15:49:33;7.22;;;2.00;;
41456;SDS011;27197;51.752;5.220;2023-03-23T15:52:03;6.78;;;2.27;;
41456;SDS011;27197;51.752;5.220;2023-03-23T15:54:31;6.35;;;2.12;;
41456;SDS011;27197;51.752;5.220;2023-03-23T15:57:01;5.75;;;1.62;;
41456;SDS011;27197;51.752;5.220;2023-03-23T15:59:29;5.20;;;1.80;;
41456;SDS011;27197;51.752;5.220;2023-03-23T16:01:58;6.72;;;1.90;;
41456;SDS011;27197;51.752;5.220;2023-03-23T16:06:54;6.40;;;1.70;;
41456;SDS011;27197;51.752;5.220;2023-03-23T16:09:24;4.53;;;2.00;;
41456;SDS011;27197;51.752;5.220;2023-03-23T16:11:51;6.10;;;1.40;;
41456;SDS011;27197;51.752;5.220;2023-03-23T16:14:19;4.60;;;1.72;;
41456;SDS011;27197;51.752;5.220;2023-03-23T16:16:48;5.10;;;1.37;;
41456;SDS011;27197;51.752;5.220;2023-03-23T16:19:16;6.47;;;2.00;;
41456;SDS011;27197;51.752;5.220;2023-03-23T16:21:45;7.47;;;1.40;;
41456;SDS011;27197;51.752;5.220;2023-03-23T16:24:14;6.53;;;1.77;;
41456;SDS011;27197;51.752;5.220;2023-03-23T16:26:43;5.40;;;1.35;;
41456;SDS011;27197;51.752;5.220;2023-03-23T16:29:12;3.77;;;1.50;;
41456;SDS011;27197;51.752;5.220;2023-03-23T16:31:41;5.25;;;1.70;;
41456;SDS011;27197;51.752;5.220;2023-03-23T16:34:13;8.33;;;1.98;;
41456;SDS011;27197;51.752;5.220;2023-03-23T16:36:40;5.62;;;1.77;;
41456;SDS011;27197;51.752;5.220;2023-03-23T16:39:10;6.05;;;1.80;;
41456;SDS011;27197;51.752;5.220;2023-03-23T16:41:39;4.17;;;1.65;;
41456;SDS011;27197;51.752;5.220;2023-03-23T16:44:08;4.97;;;1.57;;
41456;SDS011;27197;51.752;5.220;2023-03-23T16:46:35;4.55;;;1.57;;
41456;SDS011;27197;51.752;5.220;2023-03-23T16:49:04;4.50;;;1.67;;
41456;SDS011;27197;51.752;5.220;2023-03-23T16:51:33;4.15;;;1.60;;
41456;SDS011;27197;51.752;5.220;2023-03-23T16:54:00;4.40;;;1.57;;
41456;SDS011;27197;51.752;5.220;2023-03-23T16:56:29;5.53;;;1.60;;
41456;SDS011;27197;51.752;5.220;2023-03-23T16:59:00;5.92;;;1.62;;
41456;SDS011;27197;51.752;5.220;2023-03-23T17:01:28;4.08;;;1.87;;
41456;SDS011;27197;51.752;5.220;2023-03-23T17:03:57;4.95;;;1.87;;
41456;SDS011;27197;51.752;5.220;2023-03-23T17:06:26;5.67;;;1.70;;
41456;SDS011;27197;51.752;5.220;2023-03-23T17:08:55;5.40;;;1.52;;
41456;SDS011;27197;51.752;5.220;2023-03-23T17:13:50;5.87;;;1.75;;
41456;SDS011;27197;51.752;5.220;2023-03-23T17:16:23;5.12;;;1.65;;
41456;SDS011;27197;51.752;5.220;2023-03-23T17:18:51;5.03;;;1.90;;
41456;SDS011;27197;51.752;5.220;2023-03-23T17:21:20;6.45;;;2.20;;
41456;SDS011;27197;51.752;5.220;2023-03-23T17:23:50;3.98;;;1.80;;
41456;SDS011;27197;51.752;5.220;2023-03-23T17:26:18;4.15;;;1.85;;
41456;SDS011;27197;51.752;5.220;2023-03-23T17:28:46;4.00;;;1.65;;
41456;SDS011;27197;51.752;5.220;2023-03-23T17:31:15;4.65;;;1.92;;
41456;SDS011;27197;51.752;5.220;2023-03-23T17:36:11;6.97;;;2.22;;
41456;SDS011;27197;51.752;5.220;2023-03-23T17:38:43;5.40;;;2.12;;
41456;SDS011;27197;51.752;5.220;2023-03-23T17:41:13;5.25;;;2.10;;
41456;SDS011;27197;51.752;5.220;2023-03-23T17:46:09;6.12;;;1.80;;
41456;SDS011;27197;51.752;5.220;2023-03-23T17:48:37;5.10;;;1.52;;
41456;SDS011;27197;51.752;5.220;2023-03-23T17:53:36;5.85;;;2.08;;
41456;SDS011;27197;51.752;5.220;2023-03-23T17:56:04;4.30;;;1.98;;
41456;SDS011;27197;51.752;5.220;2023-03-23T17:58:35;5.53;;;1.85;;
41456;SDS011;27197;51.752;5.220;2023-03-23T18:01:03;6.83;;;2.30;;
41456;SDS011;27197;51.752;5.220;2023-03-23T18:03:33;5.12;;;1.92;;
41456;SDS011;27197;51.752;5.220;2023-03-23T18:06:03;7.17;;;1.90;;
41456;SDS011;27197;51.752;5.220;2023-03-23T18:08:36;3.08;;;1.92;;
41456;SDS011;27197;51.752;5.220;2023-03-23T18:11:04;8.75;;;2.10;;
41456;SDS011;27197;51.752;5.220;2023-03-23T18:13:39;6.95;;;2.42;;
41456;SDS011;27197;51.752;5.220;2023-03-23T18:16:07;5.22;;;1.62;;
41456;SDS011;27197;51.752;5.220;2023-03-23T18:18:36;4.72;;;2.45;;
41456;SDS011;27197;51.752;5.220;2023-03-23T18:21:05;6.83;;;2.45;;
41456;SDS011;27197;51.752;5.220;2023-03-23T18:23:34;4.72;;;2.00;;
41456;SDS011;27197;51.752;5.220;2023-03-23T18:26:02;5.53;;;2.02;;
41456;SDS011;27197;51.752;5.220;2023-03-23T18:28:30;5.45;;;2.20;;
41456;SDS011;27197;51.752;5.220;2023-03-23T18:31:03;5.78;;;2.67;;
41456;SDS011;27197;51.752;5.220;2023-03-23T18:33:33;5.55;;;2.20;;
41456;SDS011;27197;51.752;5.220;2023-03-23T18:36:12;6.97;;;2.05;;
41456;SDS011;27197;51.752;5.220;2023-03-23T18:38:41;7.00;;;2.17;;
41456;SDS011;27197;51.752;5.220;2023-03-23T18:41:10;5.05;;;1.82;;
41456;SDS011;27197;51.752;5.220;2023-03-23T18:43:40;6.40;;;2.30;;
41456;SDS011;27197;51.752;5.220;2023-03-23T18:46:10;7.47;;;2.30;;
41456;SDS011;27197;51.752;5.220;2023-03-23T18:48:39;6.95;;;2.17;;
41456;SDS011;27197;51.752;5.220;2023-03-23T18:51:09;7.30;;;2.37;;
41456;SDS011;27197;51.752;5.220;2023-03-23T18:56:08;6.05;;;2.60;;
41456;SDS011;27197;51.752;5.220;2023-03-23T18:58:38;6.60;;;2.72;;
41456;SDS011;27197;51.752;5.220;2023-03-23T19:01:08;5.92;;;1.98;;
41456;SDS011;27197;51.752;5.220;2023-03-23T19:03:37;4.62;;;1.65;;
41456;SDS011;27197;51.752;5.220;2023-03-23T19:06:08;8.53;;;3.17;;
41456;SDS011;27197;51.752;5.220;2023-03-23T19:08:36;8.43;;;3.00;;
41456;SDS011;27197;51.752;5.220;2023-03-23T19:11:05;6.37;;;2.60;;
41456;SDS011;27197;51.752;5.220;2023-03-23T19:13:34;6.25;;;2.40;;
41456;SDS011;27197;51.752;5.220;2023-03-23T19:16:03;8.38;;;2.70;;
41456;SDS011;27197;51.752;5.220;2023-03-23T19:18:32;8.18;;;2.40;;
41456;SDS011;27197;51.752;5.220;2023-03-23T19:21:01;7.33;;;2.62;;
41456;SDS011;27197;51.752;5.220;2023-03-23T19:23:30;6.85;;;2.70;;
41456;SDS011;27197;51.752;5.220;2023-03-23T19:25:59;6.00;;;2.45;;
41456;SDS011;27197;51.752;5.220;2023-03-23T19:28:29;6.30;;;2.37;;
41456;SDS011;27197;51.752;5.220;2023-03-23T19:30:57;4.55;;;1.95;;
41456;SDS011;27197;51.752;5.220;2023-03-23T19:33:27;4.85;;;2.02;;
41456;SDS011;27197;51.752;5.220;2023-03-23T19:36:00;8.18;;;2.60;;
41456;SDS011;27197;51.752;5.220;2023-03-23T19:38:33;5.90;;;2.25;;
41456;SDS011;27197;51.752;5.220;2023-03-23T19:41:01;6.80;;;2.42;;
41456;SDS011;27197;51.752;5.220;2023-03-23T19:43:32;7.92;;;2.25;;
41456;SDS011;27197;51.752;5.220;2023-03-23T19:46:00;7.60;;;2.30;;
41456;SDS011;27197;51.752;5.220;2023-03-23T19:48:29;7.85;;;2.33;;
41456;SDS011;27197;51.752;5.220;2023-03-23T19:50:58;8.28;;;2.72;;
41456;SDS011;27197;51.752;5.220;2023-03-23T19:53:27;4.15;;;2.10;;
41456;SDS011;27197;51.752;5.220;2023-03-23T19:58:23;4.85;;;1.87;;
41456;SDS011;27197;51.752;5.220;2023-03-23T20:00:52;6.53;;;2.02;;
41456;SDS011;27197;51.752;5.220;2023-03-23T20:03:21;7.58;;;2.33;;
41456;SDS011;27197;51.752;5.220;2023-03-23T20:05:54;7.90;;;2.45;;
41456;SDS011;27197;51.752;5.220;2023-03-23T20:08:21;7.45;;;2.45;;
41456;SDS011;27197;51.752;5.220;2023-03-23T20:10:59;5.53;;;2.15;;
41456;SDS011;27197;51.752;5.220;2023-03-23T20:13:22;10.32;;;2.67;;
